Terminal Aerodrome Forecast
Issued by NWS

Home | Current Version | Previous Version | Graphics & Text | Print | Product List | Glossary On
Versions: 1 2 3 4 5 6 7 8 9 10 11 12 13 14 15 16 17 18 19
000
FTUS43 KMPX 181500 AAC
TAFAXN
TAF AMD
KAXN 181549Z 1816/1912 13010KT 5SM BR OVC003
     FM181700 16014KT P6SM SCT035
     FM190800 18015G22KT P6SM OVC006=

USA.gov is the U.S. government's official web portal to all federal, state and local government web resources and services.